sensor_id;sensor_type;location;lat;lon;timestamp;P1;durP1;ratioP1;P2;durP2;ratioP2
14516;SDS011;7344;50.864;4.362;2024-02-26T00:00:34;2.37;;;2.17;;
14516;SDS011;7344;50.864;4.362;2024-02-26T00:03:00;3.43;;;2.10;;
14516;SDS011;7344;50.864;4.362;2024-02-26T00:05:26;2.27;;;1.80;;
14516;SDS011;7344;50.864;4.362;2024-02-26T00:07:52;2.00;;;1.70;;
14516;SDS011;7344;50.864;4.362;2024-02-26T00:10:17;3.17;;;2.13;;
14516;SDS011;7344;50.864;4.362;2024-02-26T00:12:43;3.70;;;2.23;;
14516;SDS011;7344;50.864;4.362;2024-02-26T00:15:09;2.80;;;2.43;;
14516;SDS011;7344;50.864;4.362;2024-02-26T00:17:35;3.17;;;2.20;;
14516;SDS011;7344;50.864;4.362;2024-02-26T00:20:04;2.97;;;2.73;;
14516;SDS011;7344;50.864;4.362;2024-02-26T00:22:33;4.73;;;2.50;;
14516;SDS011;7344;50.864;4.362;2024-02-26T00:24:59;3.07;;;2.77;;
14516;SDS011;7344;50.864;4.362;2024-02-26T00:27:25;4.67;;;3.40;;
14516;SDS011;7344;50.864;4.362;2024-02-26T00:29:51;6.10;;;3.67;;
14516;SDS011;7344;50.864;4.362;2024-02-26T00:32:16;3.17;;;2.87;;
14516;SDS011;7344;50.864;4.362;2024-02-26T00:34:43;4.90;;;2.67;;
14516;SDS011;7344;50.864;4.362;2024-02-26T00:37:09;2.73;;;2.20;;
14516;SDS011;7344;50.864;4.362;2024-02-26T00:39:34;2.33;;;2.17;;
14516;SDS011;7344;50.864;4.362;2024-02-26T00:42:00;4.73;;;2.40;;
14516;SDS011;7344;50.864;4.362;2024-02-26T00:44:26;3.80;;;3.00;;
14516;SDS011;7344;50.864;4.362;2024-02-26T00:46:51;3.20;;;2.53;;
14516;SDS011;7344;50.864;4.362;2024-02-26T00:49:17;3.73;;;2.10;;
14516;SDS011;7344;50.864;4.362;2024-02-26T00:51:43;3.10;;;2.90;;
14516;SDS011;7344;50.864;4.362;2024-02-26T00:54:08;5.40;;;2.93;;
14516;SDS011;7344;50.864;4.362;2024-02-26T00:56:34;2.80;;;2.50;;
14516;SDS011;7344;50.864;4.362;2024-02-26T00:59:00;2.57;;;2.37;;
14516;SDS011;7344;50.864;4.362;2024-02-26T01:01:26;4.10;;;3.40;;
14516;SDS011;7344;50.864;4.362;2024-02-26T01:03:52;3.83;;;2.23;;
14516;SDS011;7344;50.864;4.362;2024-02-26T01:06:17;3.80;;;2.33;;
14516;SDS011;7344;50.864;4.362;2024-02-26T01:08:43;3.43;;;2.13;;
14516;SDS011;7344;50.864;4.362;2024-02-26T01:11:09;3.27;;;2.60;;
14516;SDS011;7344;50.864;4.362;2024-02-26T01:13:35;2.10;;;2.00;;
14516;SDS011;7344;50.864;4.362;2024-02-26T01:16:00;2.37;;;1.97;;
14516;SDS011;7344;50.864;4.362;2024-02-26T01:18:26;6.30;;;2.50;;
14516;SDS011;7344;50.864;4.362;2024-02-26T01:20:52;1.63;;;1.53;;
14516;SDS011;7344;50.864;4.362;2024-02-26T01:23:19;2.30;;;2.10;;
14516;SDS011;7344;50.864;4.362;2024-02-26T01:25:45;2.13;;;2.00;;
14516;SDS011;7344;50.864;4.362;2024-02-26T01:28:11;2.53;;;1.90;;
14516;SDS011;7344;50.864;4.362;2024-02-26T01:30:36;5.10;;;1.40;;
14516;SDS011;7344;50.864;4.362;2024-02-26T01:33:02;2.03;;;1.83;;
14516;SDS011;7344;50.864;4.362;2024-02-26T01:35:28;4.10;;;2.10;;
14516;SDS011;7344;50.864;4.362;2024-02-26T01:37:55;2.70;;;1.90;;
14516;SDS011;7344;50.864;4.362;2024-02-26T01:40:20;3.87;;;1.87;;
14516;SDS011;7344;50.864;4.362;2024-02-26T01:42:46;1.50;;;1.40;;
14516;SDS011;7344;50.864;4.362;2024-02-26T01:45:16;1.63;;;1.33;;
14516;SDS011;7344;50.864;4.362;2024-02-26T01:47:51;1.90;;;1.40;;
14516;SDS011;7344;50.864;4.362;2024-02-26T01:50:18;2.93;;;1.40;;
14516;SDS011;7344;50.864;4.362;2024-02-26T01:52:45;2.73;;;1.30;;
14516;SDS011;7344;50.864;4.362;2024-02-26T01:55:13;1.70;;;1.60;;
14516;SDS011;7344;50.864;4.362;2024-02-26T01:57:40;2.07;;;1.87;;
14516;SDS011;7344;50.864;4.362;2024-02-26T02:00:09;1.70;;;1.60;;
14516;SDS011;7344;50.864;4.362;2024-02-26T02:02:35;2.97;;;1.43;;
14516;SDS011;7344;50.864;4.362;2024-02-26T02:05:01;1.47;;;1.37;;
14516;SDS011;7344;50.864;4.362;2024-02-26T02:07:27;2.50;;;1.80;;
14516;SDS011;7344;50.864;4.362;2024-02-26T02:09:55;2.20;;;1.40;;
14516;SDS011;7344;50.864;4.362;2024-02-26T02:12:21;1.40;;;1.23;;
14516;SDS011;7344;50.864;4.362;2024-02-26T02:14:47;3.43;;;1.70;;
14516;SDS011;7344;50.864;4.362;2024-02-26T02:17:13;2.17;;;1.43;;
14516;SDS011;7344;50.864;4.362;2024-02-26T02:19:38;2.20;;;1.30;;
14516;SDS011;7344;50.864;4.362;2024-02-26T02:22:04;2.20;;;1.67;;
14516;SDS011;7344;50.864;4.362;2024-02-26T02:24:30;3.50;;;1.80;;
14516;SDS011;7344;50.864;4.362;2024-02-26T02:26:55;1.40;;;1.30;;
14516;SDS011;7344;50.864;4.362;2024-02-26T02:29:21;1.30;;;1.20;;
14516;SDS011;7344;50.864;4.362;2024-02-26T02:31:47;1.47;;;1.37;;
14516;SDS011;7344;50.864;4.362;2024-02-26T02:34:13;2.97;;;1.67;;
14516;SDS011;7344;50.864;4.362;2024-02-26T02:36:51;2.33;;;1.17;;
14516;SDS011;7344;50.864;4.362;2024-02-26T02:39:17;1.50;;;1.30;;
14516;SDS011;7344;50.864;4.362;2024-02-26T02:41:43;1.87;;;1.57;;
14516;SDS011;7344;50.864;4.362;2024-02-26T02:44:08;1.57;;;1.40;;
14516;SDS011;7344;50.864;4.362;2024-02-26T02:46:34;1.43;;;1.33;;
14516;SDS011;7344;50.864;4.362;2024-02-26T02:49:00;2.53;;;1.50;;
14516;SDS011;7344;50.864;4.362;2024-02-26T02:51:26;3.10;;;1.37;;
14516;SDS011;7344;50.864;4.362;2024-02-26T02:53:52;1.70;;;1.60;;
14516;SDS011;7344;50.864;4.362;2024-02-26T02:56:18;1.70;;;1.60;;
14516;SDS011;7344;50.864;4.362;2024-02-26T02:58:44;1.00;;;1.00;;
14516;SDS011;7344;50.864;4.362;2024-02-26T03:01:10;2.13;;;1.93;;
14516;SDS011;7344;50.864;4.362;2024-02-26T03:03:35;1.50;;;1.40;;
14516;SDS011;7344;50.864;4.362;2024-02-26T03:06:02;1.73;;;1.63;;
14516;SDS011;7344;50.864;4.362;2024-02-26T03:08:28;1.60;;;1.37;;
14516;SDS011;7344;50.864;4.362;2024-02-26T03:10:54;2.43;;;1.47;;
14516;SDS011;7344;50.864;4.362;2024-02-26T03:13:20;1.53;;;1.43;;
14516;SDS011;7344;50.864;4.362;2024-02-26T03:15:46;2.30;;;1.70;;
14516;SDS011;7344;50.864;4.362;2024-02-26T03:18:12;1.70;;;1.60;;
14516;SDS011;7344;50.864;4.362;2024-02-26T03:20:37;1.00;;;1.00;;
14516;SDS011;7344;50.864;4.362;2024-02-26T03:23:03;2.53;;;1.77;;
14516;SDS011;7344;50.864;4.362;2024-02-26T03:25:29;1.93;;;1.80;;
14516;SDS011;7344;50.864;4.362;2024-02-26T03:27:55;3.60;;;2.00;;
14516;SDS011;7344;50.864;4.362;2024-02-26T03:30:20;1.27;;;1.27;;
14516;SDS011;7344;50.864;4.362;2024-02-26T03:32:46;2.57;;;1.77;;
14516;SDS011;7344;50.864;4.362;2024-02-26T03:35:12;1.30;;;1.20;;
14516;SDS011;7344;50.864;4.362;2024-02-26T03:37:38;1.27;;;1.17;;
14516;SDS011;7344;50.864;4.362;2024-02-26T03:40:04;1.70;;;1.60;;
14516;SDS011;7344;50.864;4.362;2024-02-26T03:42:31;1.87;;;1.67;;
14516;SDS011;7344;50.864;4.362;2024-02-26T03:44:56;1.67;;;1.57;;
14516;SDS011;7344;50.864;4.362;2024-02-26T03:47:22;1.60;;;1.47;;
14516;SDS011;7344;50.864;4.362;2024-02-26T03:49:48;1.90;;;1.80;;
14516;SDS011;7344;50.864;4.362;2024-02-26T03:52:13;1.33;;;1.33;;
14516;SDS011;7344;50.864;4.362;2024-02-26T03:54:40;3.13;;;1.70;;
14516;SDS011;7344;50.864;4.362;2024-02-26T03:57:05;1.63;;;1.53;;
14516;SDS011;7344;50.864;4.362;2024-02-26T03:59:31;1.83;;;1.70;;
14516;SDS011;7344;50.864;4.362;2024-02-26T04:01:57;2.10;;;2.00;;
14516;SDS011;7344;50.864;4.362;2024-02-26T04:04:22;1.50;;;1.40;;
14516;SDS011;7344;50.864;4.362;2024-02-26T04:06:48;1.87;;;1.77;;
14516;SDS011;7344;50.864;4.362;2024-02-26T04:09:14;2.23;;;2.03;;
14516;SDS011;7344;50.864;4.362;2024-02-26T04:11:40;3.27;;;2.70;;
14516;SDS011;7344;50.864;4.362;2024-02-26T04:14:06;3.33;;;3.03;;
14516;SDS011;7344;50.864;4.362;2024-02-26T04:16:33;4.00;;;3.70;;
14516;SDS011;7344;50.864;4.362;2024-02-26T04:19:00;3.80;;;3.50;;
14516;SDS011;7344;50.864;4.362;2024-02-26T04:21:26;4.67;;;4.30;;
14516;SDS011;7344;50.864;4.362;2024-02-26T04:23:52;4.93;;;4.53;;
14516;SDS011;7344;50.864;4.362;2024-02-26T04:26:20;5.57;;;5.17;;
14516;SDS011;7344;50.864;4.362;2024-02-26T04:28:46;5.93;;;5.50;;
14516;SDS011;7344;50.864;4.362;2024-02-26T04:31:12;5.47;;;4.17;;
14516;SDS011;7344;50.864;4.362;2024-02-26T04:33:38;4.30;;;3.93;;
14516;SDS011;7344;50.864;4.362;2024-02-26T04:36:03;6.07;;;5.47;;
14516;SDS011;7344;50.864;4.362;2024-02-26T04:38:29;7.43;;;5.80;;
14516;SDS011;7344;50.864;4.362;2024-02-26T04:40:55;7.10;;;5.90;;
14516;SDS011;7344;50.864;4.362;2024-02-26T04:43:21;5.83;;;5.23;;
14516;SDS011;7344;50.864;4.362;2024-02-26T04:45:46;4.93;;;4.53;;
14516;SDS011;7344;50.864;4.362;2024-02-26T04:48:13;7.07;;;6.07;;
14516;SDS011;7344;50.864;4.362;2024-02-26T04:50:38;6.43;;;5.83;;
14516;SDS011;7344;50.864;4.362;2024-02-26T04:53:04;5.87;;;5.27;;
14516;SDS011;7344;50.864;4.362;2024-02-26T04:55:30;7.10;;;6.43;;
14516;SDS011;7344;50.864;4.362;2024-02-26T04:57:55;6.10;;;5.60;;
14516;SDS011;7344;50.864;4.362;2024-02-26T05:00:21;5.50;;;4.60;;
14516;SDS011;7344;50.864;4.362;2024-02-26T05:02:46;6.47;;;5.73;;
14516;SDS011;7344;50.864;4.362;2024-02-26T05:05:13;7.50;;;6.83;;
14516;SDS011;7344;50.864;4.362;2024-02-26T05:07:39;6.93;;;5.53;;
14516;SDS011;7344;50.864;4.362;2024-02-26T05:10:06;8.63;;;7.00;;
14516;SDS011;7344;50.864;4.362;2024-02-26T05:12:32;7.80;;;7.10;;
14516;SDS011;7344;50.864;4.362;2024-02-26T05:15:00;7.93;;;6.50;;
14516;SDS011;7344;50.864;4.362;2024-02-26T05:17:25;14.40;;;8.17;;
14516;SDS011;7344;50.864;4.362;2024-02-26T05:19:51;12.40;;;8.90;;
14516;SDS011;7344;50.864;4.362;2024-02-26T05:22:17;10.73;;;8.10;;
14516;SDS011;7344;50.864;4.362;2024-02-26T05:24:42;11.00;;;9.37;;
14516;SDS011;7344;50.864;4.362;2024-02-26T05:27:08;11.47;;;10.27;;
14516;SDS011;7344;50.864;4.362;2024-02-26T05:29:34;12.40;;;11.10;;
14516;SDS011;7344;50.864;4.362;2024-02-26T05:31:59;11.00;;;8.83;;
14516;SDS011;7344;50.864;4.362;2024-02-26T05:34:25;13.93;;;12.53;;
14516;SDS011;7344;50.864;4.362;2024-02-26T05:36:51;14.33;;;12.73;;
14516;SDS011;7344;50.864;4.362;2024-02-26T05:39:16;14.30;;;12.80;;
14516;SDS011;7344;50.864;4.362;2024-02-26T05:41:42;14.07;;;12.60;;
14516;SDS011;7344;50.864;4.362;2024-02-26T05:44:08;12.07;;;10.77;;
14516;SDS011;7344;50.864;4.362;2024-02-26T05:46:35;15.20;;;12.47;;
14516;SDS011;7344;50.864;4.362;2024-02-26T05:49:01;13.40;;;11.73;;
14516;SDS011;7344;50.864;4.362;2024-02-26T05:51:26;14.90;;;13.13;;
14516;SDS011;7344;50.864;4.362;2024-02-26T05:53:52;11.07;;;8.60;;
14516;SDS011;7344;50.864;4.362;2024-02-26T05:56:23;16.60;;;13.43;;
14516;SDS011;7344;50.864;4.362;2024-02-26T05:58:49;15.60;;;13.50;;
14516;SDS011;7344;50.864;4.362;2024-02-26T06:01:16;16.47;;;13.20;;
14516;SDS011;7344;50.864;4.362;2024-02-26T06:03:42;15.17;;;12.63;;
14516;SDS011;7344;50.864;4.362;2024-02-26T06:06:08;15.40;;;12.40;;
14516;SDS011;7344;50.864;4.362;2024-02-26T06:08:35;16.70;;;14.80;;
14516;SDS011;7344;50.864;4.362;2024-02-26T06:11:04;14.00;;;10.40;;
14516;SDS011;7344;50.864;4.362;2024-02-26T06:13:31;16.50;;;14.87;;
14516;SDS011;7344;50.864;4.362;2024-02-26T06:15:57;13.83;;;10.20;;
14516;SDS011;7344;50.864;4.362;2024-02-26T06:18:23;14.37;;;12.73;;
14516;SDS011;7344;50.864;4.362;2024-02-26T06:20:48;15.13;;;12.13;;
14516;SDS011;7344;50.864;4.362;2024-02-26T06:23:14;17.83;;;14.00;;
14516;SDS011;7344;50.864;4.362;2024-02-26T06:25:41;14.80;;;11.10;;
14516;SDS011;7344;50.864;4.362;2024-02-26T06:28:07;14.37;;;12.80;;
14516;SDS011;7344;50.864;4.362;2024-02-26T06:30:33;14.43;;;11.77;;
14516;SDS011;7344;50.864;4.362;2024-02-26T06:32:59;14.77;;;13.20;;
14516;SDS011;7344;50.864;4.362;2024-02-26T06:35:25;14.67;;;13.17;;
14516;SDS011;7344;50.864;4.362;2024-02-26T06:37:50;14.27;;;10.70;;
14516;SDS011;7344;50.864;4.362;2024-02-26T06:40:18;12.87;;;10.53;;
14516;SDS011;7344;50.864;4.362;2024-02-26T06:42:44;13.63;;;12.30;;
14516;SDS011;7344;50.864;4.362;2024-02-26T06:45:10;14.63;;;12.67;;
14516;SDS011;7344;50.864;4.362;2024-02-26T06:47:35;12.80;;;11.20;;
14516;SDS011;7344;50.864;4.362;2024-02-26T06:50:01;14.73;;;11.00;;
14516;SDS011;7344;50.864;4.362;2024-02-26T06:52:27;14.77;;;12.80;;
14516;SDS011;7344;50.864;4.362;2024-02-26T06:54:52;11.90;;;10.43;;
14516;SDS011;7344;50.864;4.362;2024-02-26T06:57:19;15.70;;;14.03;;
14516;SDS011;7344;50.864;4.362;2024-02-26T06:59:45;12.93;;;11.53;;
14516;SDS011;7344;50.864;4.362;2024-02-26T07:02:12;13.30;;;11.83;;
14516;SDS011;7344;50.864;4.362;2024-02-26T07:04:41;12.37;;;11.07;;
14516;SDS011;7344;50.864;4.362;2024-02-26T07:07:07;13.83;;;12.30;;
14516;SDS011;7344;50.864;4.362;2024-02-26T07:09:33;14.80;;;12.63;;
14516;SDS011;7344;50.864;4.362;2024-02-26T07:11:59;14.27;;;12.37;;
14516;SDS011;7344;50.864;4.362;2024-02-26T07:14:24;15.13;;;13.60;;
14516;SDS011;7344;50.864;4.362;2024-02-26T07:16:50;15.53;;;14.00;;
14516;SDS011;7344;50.864;4.362;2024-02-26T07:19:16;14.10;;;12.67;;
14516;SDS011;7344;50.864;4.362;2024-02-26T07:21:42;16.67;;;15.07;;
14516;SDS011;7344;50.864;4.362;2024-02-26T07:24:08;12.60;;;11.30;;
14516;SDS011;7344;50.864;4.362;2024-02-26T07:26:33;15.17;;;13.57;;
14516;SDS011;7344;50.864;4.362;2024-02-26T07:28:59;16.20;;;12.57;;
14516;SDS011;7344;50.864;4.362;2024-02-26T07:31:26;15.10;;;13.30;;
14516;SDS011;7344;50.864;4.362;2024-02-26T07:33:51;16.67;;;14.87;;
14516;SDS011;7344;50.864;4.362;2024-02-26T07:36:17;14.80;;;13.23;;
14516;SDS011;7344;50.864;4.362;2024-02-26T07:38:43;12.60;;;11.20;;
14516;SDS011;7344;50.864;4.362;2024-02-26T07:41:08;14.13;;;12.67;;
14516;SDS011;7344;50.864;4.362;2024-02-26T07:43:34;14.60;;;12.27;;
14516;SDS011;7344;50.864;4.362;2024-02-26T07:46:00;15.23;;;11.67;;
14516;SDS011;7344;50.864;4.362;2024-02-26T07:48:25;11.70;;;10.50;;
14516;SDS011;7344;50.864;4.362;2024-02-26T07:50:51;15.03;;;12.93;;
14516;SDS011;7344;50.864;4.362;2024-02-26T07:53:17;16.67;;;13.70;;
14516;SDS011;7344;50.864;4.362;2024-02-26T07:55:43;13.90;;;12.43;;
14516;SDS011;7344;50.864;4.362;2024-02-26T07:58:08;12.00;;;10.57;;
14516;SDS011;7344;50.864;4.362;2024-02-26T08:00:34;13.47;;;12.03;;
14516;SDS011;7344;50.864;4.362;2024-02-26T08:03:00;17.03;;;13.83;;
14516;SDS011;7344;50.864;4.362;2024-02-26T08:05:26;16.47;;;13.33;;
14516;SDS011;7344;50.864;4.362;2024-02-26T08:07:51;13.93;;;12.47;;
14516;SDS011;7344;50.864;4.362;2024-02-26T08:10:17;13.43;;;11.73;;
14516;SDS011;7344;50.864;4.362;2024-02-26T08:12:42;12.97;;;11.37;;
14516;SDS011;7344;50.864;4.362;2024-02-26T08:15:10;12.87;;;11.67;;
14516;SDS011;7344;50.864;4.362;2024-02-26T08:17:36;10.13;;;9.13;;
14516;SDS011;7344;50.864;4.362;2024-02-26T08:20:02;11.13;;;9.07;;
14516;SDS011;7344;50.864;4.362;2024-02-26T08:22:28;13.37;;;10.97;;
14516;SDS011;7344;50.864;4.362;2024-02-26T08:24:53;10.73;;;9.73;;
14516;SDS011;7344;50.864;4.362;2024-02-26T08:27:19;10.63;;;8.73;;
14516;SDS011;7344;50.864;4.362;2024-02-26T08:29:45;11.03;;;9.30;;
14516;SDS011;7344;50.864;4.362;2024-02-26T08:32:10;12.50;;;11.30;;
14516;SDS011;7344;50.864;4.362;2024-02-26T08:34:36;13.03;;;11.73;;
14516;SDS011;7344;50.864;4.362;2024-02-26T08:37:02;11.43;;;9.50;;
14516;SDS011;7344;50.864;4.362;2024-02-26T08:39:28;11.73;;;10.17;;
14516;SDS011;7344;50.864;4.362;2024-02-26T08:41:53;11.83;;;10.63;;
14516;SDS011;7344;50.864;4.362;2024-02-26T08:44:19;9.90;;;8.90;;
14516;SDS011;7344;50.864;4.362;2024-02-26T08:46:45;10.73;;;9.57;;
14516;SDS011;7344;50.864;4.362;2024-02-26T08:49:11;11.07;;;9.93;;
14516;SDS011;7344;50.864;4.362;2024-02-26T08:51:41;10.83;;;9.70;;
14516;SDS011;7344;50.864;4.362;2024-02-26T08:54:08;11.00;;;9.90;;
14516;SDS011;7344;50.864;4.362;2024-02-26T08:56:33;8.77;;;7.97;;
14516;SDS011;7344;50.864;4.362;2024-02-26T08:58:59;9.33;;;8.43;;
14516;SDS011;7344;50.864;4.362;2024-02-26T09:01:28;11.77;;;10.67;;
14516;SDS011;7344;50.864;4.362;2024-02-26T09:03:54;11.80;;;10.60;;
14516;SDS011;7344;50.864;4.362;2024-02-26T09:06:21;12.20;;;11.00;;
14516;SDS011;7344;50.864;4.362;2024-02-26T09:08:47;11.50;;;10.50;;
14516;SDS011;7344;50.864;4.362;2024-02-26T09:11:12;12.03;;;10.80;;
14516;SDS011;7344;50.864;4.362;2024-02-26T09:13:38;11.73;;;9.90;;
14516;SDS011;7344;50.864;4.362;2024-02-26T09:16:04;10.97;;;9.97;;
14516;SDS011;7344;50.864;4.362;2024-02-26T09:18:30;9.43;;;8.53;;
14516;SDS011;7344;50.864;4.362;2024-02-26T09:20:56;11.27;;;10.17;;
14516;SDS011;7344;50.864;4.362;2024-02-26T09:23:22;7.10;;;6.40;;
14516;SDS011;7344;50.864;4.362;2024-02-26T09:25:47;8.43;;;7.63;;
14516;SDS011;7344;50.864;4.362;2024-02-26T09:28:13;9.37;;;8.43;;
14516;SDS011;7344;50.864;4.362;2024-02-26T09:30:41;12.67;;;11.10;;
14516;SDS011;7344;50.864;4.362;2024-02-26T09:33:07;12.30;;;11.10;;
14516;SDS011;7344;50.864;4.362;2024-02-26T09:35:33;12.83;;;11.53;;
14516;SDS011;7344;50.864;4.362;2024-02-26T09:37:59;10.97;;;9.83;;
14516;SDS011;7344;50.864;4.362;2024-02-26T09:40:24;12.90;;;10.50;;
14516;SDS011;7344;50.864;4.362;2024-02-26T09:42:50;13.63;;;12.10;;
14516;SDS011;7344;50.864;4.362;2024-02-26T09:45:21;14.20;;;11.40;;
14516;SDS011;7344;50.864;4.362;2024-02-26T09:47:49;12.17;;;10.97;;
14516;SDS011;7344;50.864;4.362;2024-02-26T09:50:16;12.63;;;11.43;;
14516;SDS011;7344;50.864;4.362;2024-02-26T09:52:43;10.27;;;9.20;;
14516;SDS011;7344;50.864;4.362;2024-02-26T09:55:09;9.23;;;8.33;;
14516;SDS011;7344;50.864;4.362;2024-02-26T09:57:38;10.03;;;7.73;;
14516;SDS011;7344;50.864;4.362;2024-02-26T10:00:09;10.57;;;9.67;;
14516;SDS011;7344;50.864;4.362;2024-02-26T10:02:43;8.63;;;7.80;;
14516;SDS011;7344;50.864;4.362;2024-02-26T10:05:10;7.43;;;6.73;;
14516;SDS011;7344;50.864;4.362;2024-02-26T10:07:39;11.37;;;9.17;;
14516;SDS011;7344;50.864;4.362;2024-02-26T10:10:07;8.17;;;7.37;;
14516;SDS011;7344;50.864;4.362;2024-02-26T10:12:33;8.87;;;7.97;;
14516;SDS011;7344;50.864;4.362;2024-02-26T10:14:59;9.83;;;8.83;;
14516;SDS011;7344;50.864;4.362;2024-02-26T10:17:24;11.00;;;10.00;;
14516;SDS011;7344;50.864;4.362;2024-02-26T10:19:51;9.80;;;8.80;;
14516;SDS011;7344;50.864;4.362;2024-02-26T10:22:20;10.20;;;9.20;;
14516;SDS011;7344;50.864;4.362;2024-02-26T10:24:47;9.87;;;8.97;;
14516;SDS011;7344;50.864;4.362;2024-02-26T10:27:13;7.80;;;7.10;;
14516;SDS011;7344;50.864;4.362;2024-02-26T10:29:40;7.30;;;6.60;;
14516;SDS011;7344;50.864;4.362;2024-02-26T10:32:08;7.90;;;7.20;;
14516;SDS011;7344;50.864;4.362;2024-02-26T10:34:34;9.70;;;8.83;;
14516;SDS011;7344;50.864;4.362;2024-02-26T10:37:02;8.60;;;7.90;;
14516;SDS011;7344;50.864;4.362;2024-02-26T10:39:29;11.37;;;6.97;;
14516;SDS011;7344;50.864;4.362;2024-02-26T10:41:55;8.67;;;7.70;;
14516;SDS011;7344;50.864;4.362;2024-02-26T10:44:21;8.53;;;7.73;;
14516;SDS011;7344;50.864;4.362;2024-02-26T10:46:47;8.30;;;7.33;;
14516;SDS011;7344;50.864;4.362;2024-02-26T10:49:14;6.33;;;5.73;;
14516;SDS011;7344;50.864;4.362;2024-02-26T10:51:45;6.50;;;5.90;;
14516;SDS011;7344;50.864;4.362;2024-02-26T10:54:15;5.87;;;5.27;;
14516;SDS011;7344;50.864;4.362;2024-02-26T10:56:41;5.47;;;5.07;;
14516;SDS011;7344;50.864;4.362;2024-02-26T10:59:09;7.57;;;6.60;;
14516;SDS011;7344;50.864;4.362;2024-02-26T11:01:38;6.30;;;5.80;;
14516;SDS011;7344;50.864;4.362;2024-02-26T11:04:06;6.87;;;6.17;;
14516;SDS011;7344;50.864;4.362;2024-02-26T11:06:33;9.10;;;7.70;;
14516;SDS011;7344;50.864;4.362;2024-02-26T11:09:00;5.47;;;5.07;;
14516;SDS011;7344;50.864;4.362;2024-02-26T11:11:27;8.63;;;7.67;;
14516;SDS011;7344;50.864;4.362;2024-02-26T11:13:54;4.30;;;4.00;;
14516;SDS011;7344;50.864;4.362;2024-02-26T11:16:21;3.63;;;3.43;;
14516;SDS011;7344;50.864;4.362;2024-02-26T11:18:48;4.90;;;4.50;;
14516;SDS011;7344;50.864;4.362;2024-02-26T11:21:17;4.70;;;4.40;;
14516;SDS011;7344;50.864;4.362;2024-02-26T11:23:47;4.90;;;4.50;;
14516;SDS011;7344;50.864;4.362;2024-02-26T11:26:13;3.77;;;3.53;;
14516;SDS011;7344;50.864;4.362;2024-02-26T11:28:40;4.73;;;4.43;;
14516;SDS011;7344;50.864;4.362;2024-02-26T11:31:06;3.67;;;3.47;;
14516;SDS011;7344;50.864;4.362;2024-02-26T11:33:33;3.43;;;3.23;;
14516;SDS011;7344;50.864;4.362;2024-02-26T11:36:12;3.33;;;3.03;;
14516;SDS011;7344;50.864;4.362;2024-02-26T11:38:39;2.90;;;2.70;;
14516;SDS011;7344;50.864;4.362;2024-02-26T11:41:05;4.70;;;4.40;;
14516;SDS011;7344;50.864;4.362;2024-02-26T11:43:49;4.20;;;3.97;;
14516;SDS011;7344;50.864;4.362;2024-02-26T11:46:33;4.10;;;3.80;;
14516;SDS011;7344;50.864;4.362;2024-02-26T11:51:52;5.00;;;4.60;;
14516;SDS011;7344;50.864;4.362;2024-02-26T11:57:20;3.63;;;3.40;;
14516;SDS011;7344;50.864;4.362;2024-02-26T11:59:46;3.80;;;3.50;;
14516;SDS011;7344;50.864;4.362;2024-02-26T12:02:37;4.33;;;4.03;;
14516;SDS011;7344;50.864;4.362;2024-02-26T12:05:17;5.10;;;4.23;;
14516;SDS011;7344;50.864;4.362;2024-02-26T12:07:46;4.93;;;4.53;;
14516;SDS011;7344;50.864;4.362;2024-02-26T12:10:14;5.17;;;4.63;;
14516;SDS011;7344;50.864;4.362;2024-02-26T12:12:53;4.20;;;3.80;;
14516;SDS011;7344;50.864;4.362;2024-02-26T12:15:23;7.90;;;7.20;;
14516;SDS011;7344;50.864;4.362;2024-02-26T12:17:49;4.20;;;3.80;;
14516;SDS011;7344;50.864;4.362;2024-02-26T12:20:16;5.37;;;4.97;;
14516;SDS011;7344;50.864;4.362;2024-02-26T12:22:46;5.00;;;4.60;;
14516;SDS011;7344;50.864;4.362;2024-02-26T12:25:15;6.30;;;5.80;;
14516;SDS011;7344;50.864;4.362;2024-02-26T12:27:41;6.03;;;5.43;;
14516;SDS011;7344;50.864;4.362;2024-02-26T12:30:07;7.57;;;6.20;;
14516;SDS011;7344;50.864;4.362;2024-02-26T12:32:33;7.83;;;7.13;;
14516;SDS011;7344;50.864;4.362;2024-02-26T12:35:00;6.00;;;5.50;;
14516;SDS011;7344;50.864;4.362;2024-02-26T12:37:27;5.67;;;5.27;;
14516;SDS011;7344;50.864;4.362;2024-02-26T12:39:53;7.63;;;5.80;;
14516;SDS011;7344;50.864;4.362;2024-02-26T12:42:19;4.93;;;4.53;;
14516;SDS011;7344;50.864;4.362;2024-02-26T12:44:46;4.77;;;4.37;;
14516;SDS011;7344;50.864;4.362;2024-02-26T12:47:12;6.60;;;6.10;;
14516;SDS011;7344;50.864;4.362;2024-02-26T12:49:42;6.03;;;5.53;;
14516;SDS011;7344;50.864;4.362;2024-02-26T12:52:09;5.13;;;4.73;;
14516;SDS011;7344;50.864;4.362;2024-02-26T12:54:35;5.80;;;5.30;;
14516;SDS011;7344;50.864;4.362;2024-02-26T12:57:04;6.83;;;6.13;;
14516;SDS011;7344;50.864;4.362;2024-02-26T12:59:31;6.13;;;5.43;;
14516;SDS011;7344;50.864;4.362;2024-02-26T13:01:59;8.77;;;6.70;;
14516;SDS011;7344;50.864;4.362;2024-02-26T13:04:26;6.43;;;5.83;;
14516;SDS011;7344;50.864;4.362;2024-02-26T13:06:54;7.63;;;6.90;;
14516;SDS011;7344;50.864;4.362;2024-02-26T13:09:20;7.63;;;6.80;;
14516;SDS011;7344;50.864;4.362;2024-02-26T13:11:52;7.13;;;6.47;;
14516;SDS011;7344;50.864;4.362;2024-02-26T13:14:22;7.77;;;7.07;;
14516;SDS011;7344;50.864;4.362;2024-02-26T13:16:57;6.33;;;5.83;;
14516;SDS011;7344;50.864;4.362;2024-02-26T13:19:23;7.23;;;6.53;;
14516;SDS011;7344;50.864;4.362;2024-02-26T13:21:49;6.73;;;6.13;;
14516;SDS011;7344;50.864;4.362;2024-02-26T13:24:15;5.10;;;4.60;;
14516;SDS011;7344;50.864;4.362;2024-02-26T13:26:41;5.60;;;5.10;;
14516;SDS011;7344;50.864;4.362;2024-02-26T13:29:07;5.67;;;5.17;;
14516;SDS011;7344;50.864;4.362;2024-02-26T13:31:39;6.50;;;6.00;;
14516;SDS011;7344;50.864;4.362;2024-02-26T13:34:07;7.83;;;7.13;;
14516;SDS011;7344;50.864;4.362;2024-02-26T13:36:33;6.97;;;6.37;;
14516;SDS011;7344;50.864;4.362;2024-02-26T13:38:58;8.07;;;7.37;;
14516;SDS011;7344;50.864;4.362;2024-02-26T13:41:26;8.07;;;7.37;;
14516;SDS011;7344;50.864;4.362;2024-02-26T13:43:52;8.87;;;8.00;;
14516;SDS011;7344;50.864;4.362;2024-02-26T13:46:18;7.37;;;6.47;;
14516;SDS011;7344;50.864;4.362;2024-02-26T13:48:44;7.03;;;6.33;;
14516;SDS011;7344;50.864;4.362;2024-02-26T13:51:10;6.37;;;5.77;;
14516;SDS011;7344;50.864;4.362;2024-02-26T13:53:36;9.17;;;8.23;;
14516;SDS011;7344;50.864;4.362;2024-02-26T13:56:01;7.43;;;6.73;;
14516;SDS011;7344;50.864;4.362;2024-02-26T13:58:30;7.80;;;7.00;;
14516;SDS011;7344;50.864;4.362;2024-02-26T14:00:56;9.50;;;8.50;;
14516;SDS011;7344;50.864;4.362;2024-02-26T14:03:22;7.87;;;7.13;;
14516;SDS011;7344;50.864;4.362;2024-02-26T14:05:47;8.87;;;7.97;;
14516;SDS011;7344;50.864;4.362;2024-02-26T14:08:14;10.80;;;9.70;;
14516;SDS011;7344;50.864;4.362;2024-02-26T14:10:39;9.73;;;7.70;;
14516;SDS011;7344;50.864;4.362;2024-02-26T14:13:05;10.73;;;9.63;;
14516;SDS011;7344;50.864;4.362;2024-02-26T14:15:31;10.73;;;9.20;;
14516;SDS011;7344;50.864;4.362;2024-02-26T14:17:58;10.13;;;9.03;;
14516;SDS011;7344;50.864;4.362;2024-02-26T14:20:24;10.07;;;8.37;;
14516;SDS011;7344;50.864;4.362;2024-02-26T14:22:51;8.70;;;7.70;;
14516;SDS011;7344;50.864;4.362;2024-02-26T14:25:18;11.07;;;9.10;;
14516;SDS011;7344;50.864;4.362;2024-02-26T14:27:45;10.93;;;8.47;;
14516;SDS011;7344;50.864;4.362;2024-02-26T14:30:13;9.50;;;6.80;;
14516;SDS011;7344;50.864;4.362;2024-02-26T14:32:40;7.50;;;6.30;;
14516;SDS011;7344;50.864;4.362;2024-02-26T14:35:09;7.27;;;6.53;;
14516;SDS011;7344;50.864;4.362;2024-02-26T14:37:37;11.10;;;8.70;;
14516;SDS011;7344;50.864;4.362;2024-02-26T14:40:03;10.83;;;7.97;;
14516;SDS011;7344;50.864;4.362;2024-02-26T14:42:29;8.40;;;6.17;;
14516;SDS011;7344;50.864;4.362;2024-02-26T14:44:55;12.47;;;8.93;;
14516;SDS011;7344;50.864;4.362;2024-02-26T14:47:20;8.80;;;7.87;;
14516;SDS011;7344;50.864;4.362;2024-02-26T14:49:46;8.17;;;6.67;;
14516;SDS011;7344;50.864;4.362;2024-02-26T14:52:13;12.53;;;9.93;;
14516;SDS011;7344;50.864;4.362;2024-02-26T14:54:39;11.37;;;8.83;;